Time;durP1;ratioP1;P1;durP2;ratioP2;P2;SDS_P1;SDS_P2;PMS_P1;PMS_P2;Temp;Humidity;BMP_temperature;BMP_pressure;BME280_temperature;BME280_humidity;BME280_pressure;Samples;Min_cycle;Max_cycle;Signal;HPM_P1;HPM_P2
2021/04/01 00:00:13;;;;;;;39.40;30.48;;;;;;;10.94;72.12;100932.69;1800937;77;21296;-73
2021/04/01 00:02:42;;;;;;;41.63;30.90;;;;;;;10.89;72.06;100927.30;1797153;79;21437;-74
2021/04/01 00:05:11;;;;;;;44.13;30.77;;;;;;;10.81;72.01;100929.05;1802105;79;21222;-72
2021/04/01 00:07:39;;;;;;;41.55;30.02;;;;;;;10.71;72.08;100924.39;1804157;79;21201;-74
2021/04/01 00:10:11;;;;;;;39.73;29.95;;;;;;;10.62;72.21;100917.86;1810792;78;21630;-73
2021/04/01 00:12:39;;;;;;;39.08;28.65;;;;;;;10.54;72.40;100919.11;1790540;79;21182;-73
2021/04/01 00:15:09;;;;;;;39.10;29.40;;;;;;;10.50;72.62;100915.33;1804109;79;21328;-73
2021/04/01 00:17:42;;;;;;;36.93;28.85;;;;;;;10.48;72.81;100917.96;1786209;79;21505;-73
2021/04/01 00:20:12;;;;;;;;;;;;;;;10.47;73.00;100909.67;1806324;79;21178;-73
2021/04/01 00:22:39;;;;;;;38.17;28.47;;;;;;;10.47;73.13;100911.02;1792895;77;20382;-73
2021/04/01 00:25:10;;;;;;;39.08;28.42;;;;;;;10.45;73.24;100907.77;1771052;79;21552;-73
2021/04/01 00:27:38;;;;;;;39.75;29.60;;;;;;;10.43;73.34;100905.36;1801797;79;22289;-73
2021/04/01 00:30:08;;;;;;;39.60;28.60;;;;;;;10.45;73.45;100902.42;1794673;78;21198;-73
2021/04/01 00:32:36;;;;;;;36.45;28.30;;;;;;;10.47;73.54;100899.80;1807558;79;21551;-73
2021/04/01 00:35:06;;;;;;;34.85;27.62;;;;;;;10.48;73.57;100894.73;1798159;79;21873;-73
2021/04/01 00:37:34;;;;;;;39.75;28.80;;;;;;;10.50;73.64;100895.83;1794692;79;21154;-73
2021/04/01 00:40:05;;;;;;;39.27;28.98;;;;;;;10.51;73.69;100900.11;1793894;79;21268;-72
2021/04/01 00:42:34;;;;;;;40.58;30.17;;;;;;;10.55;73.73;100895.88;1799760;77;21190;-72
2021/04/01 00:45:06;;;;;;;41.30;30.82;;;;;;;10.57;73.67;100893.78;1803660;79;21661;-72
2021/04/01 00:47:40;;;;;;;39.23;30.15;;;;;;;10.56;73.64;100888.97;1802226;79;21191;-73
2021/04/01 00:50:12;;;;;;;39.65;30.05;;;;;;;10.53;73.57;100888.66;1803439;79;21183;-73
2021/04/01 00:52:40;;;;;;;;;;;;;;;10.50;73.56;100878.47;1799330;79;21365;-72
2021/04/01 00:55:11;;;;;;;41.98;28.40;;;;;;;10.47;73.55;100879.77;1803006;79;20287;-72
2021/04/01 00:57:41;;;;;;;41.85;30.30;;;;;;;10.42;73.58;100873.55;1792331;79;21226;-72
2021/04/01 01:00:13;;;;;;;38.70;28.38;;;;;;;10.39;73.64;100872.17;1774785;79;21178;-73
2021/04/01 01:02:41;;;;;;;39.10;30.77;;;;;;;10.39;73.69;100864.70;1803864;79;21223;-73
2021/04/01 01:05:11;;;;;;;37.78;29.75;;;;;;;10.37;73.71;100855.61;1804675;77;21430;-73
2021/04/01 01:07:39;;;;;;;41.02;31.00;;;;;;;10.40;73.71;100855.12;1780036;78;21255;-73
2021/04/01 01:10:12;;;;;;;38.83;30.90;;;;;;;10.40;73.65;100854.28;1815042;78;21162;-73
2021/04/01 01:12:40;;;;;;;45.28;31.52;;;;;;;10.36;73.58;100851.30;1795723;79;21171;-74
2021/04/01 01:15:10;;;;;;;42.38;31.40;;;;;;;10.33;73.60;100843.79;1806924;78;21191;-73
2021/04/01 01:17:38;;;;;;;43.42;32.48;;;;;;;10.32;73.60;100847.52;1782491;78;22377;-73
2021/04/01 01:20:10;;;;;;;41.18;31.45;;;;;;;10.29;73.58;100844.02;1800652;78;21189;-73
2021/04/01 01:22:39;;;;;;;43.25;31.50;;;;;;;10.28;73.58;100842.41;1810497;78;21163;-73
2021/04/01 01:25:13;;;;;;;40.98;31.60;;;;;;;10.27;73.58;100848.28;1771428;79;21170;-73
2021/04/01 01:27:41;;;;;;;43.33;32.90;;;;;;;10.28;73.56;100849.88;1804648;79;21479;-73
2021/04/01 01:30:13;;;;;;;41.88;30.90;;;;;;;10.27;73.56;100843.47;1815080;79;21186;-71
2021/04/01 01:32:43;;;;;;;44.50;31.45;;;;;;;10.25;73.53;100838.33;1804995;79;21202;-72
2021/04/01 01:35:27;;;;;;;44.75;32.13;;;;;;;10.22;73.49;100842.83;1804605;79;21182;-74
2021/04/01 01:37:59;;;;;;;42.93;31.48;;;;;;;10.17;73.47;100834.77;1800158;79;21186;-73
2021/04/01 01:40:39;;;;;;;43.20;32.17;;;;;;;10.17;73.57;100832.60;1807212;79;23302;-75
2021/04/01 01:43:13;;;;;;;42.62;32.80;;;;;;;10.08;73.60;100837.05;1778818;78;21152;-75
2021/04/01 01:45:42;;;;;;;42.60;32.48;;;;;;;10.04;73.68;100831.13;1797103;77;21525;-74
2021/04/01 01:48:12;;;;;;;43.35;31.95;;;;;;;9.97;73.72;100827.30;1808875;77;21626;-74
2021/04/01 01:50:39;;;;;;;46.33;33.08;;;;;;;9.91;73.80;100822.94;1800860;78;21152;-75
2021/04/01 01:53:08;;;;;;;47.67;34.27;;;;;;;9.88;73.91;100824.77;1806329;77;21163;-73
2021/04/01 01:55:38;;;;;;;46.05;33.05;;;;;;;9.86;74.00;100825.53;1801120;77;21199;-74
2021/04/01 01:58:06;;;;;;;40.73;32.85;;;;;;;9.84;74.08;100815.64;1803503;77;21237;-74
2021/04/01 02:00:44;;;;;;;47.80;34.10;;;;;;;9.84;74.14;100824.98;1799110;78;21614;-73
2021/04/01 02:03:12;;;;;;;51.42;34.48;;;;;;;9.84;74.18;100818.31;1809434;77;21182;-74
2021/04/01 02:05:40;;;;;;;45.05;33.80;;;;;;;9.81;74.25;100817.47;1804954;77;21138;-73
2021/04/01 02:08:11;;;;;;;41.45;32.65;;;;;;;9.79;74.32;100811.03;1807448;77;21049;-74
2021/04/01 02:10:46;;;;;;;46.88;33.73;;;;;;;9.75;74.40;100809.11;1817365;77;21342;-74
2021/04/01 02:13:20;;;;;;;46.20;34.30;;;;;;;9.71;74.42;100801.32;1808093;77;21040;-73
2021/04/01 02:15:53;;;;;;;46.33;34.43;;;;;;;9.69;74.47;100808.75;1804475;77;21169;-74
2021/04/01 02:18:24;;;;;;;44.38;32.83;;;;;;;9.67;74.55;100810.31;1796527;78;21059;-74
2021/04/01 02:20:55;;;;;;;45.20;32.73;;;;;;;9.68;74.60;100805.81;1795538;78;21100;-74
2021/04/01 02:23:26;;;;;;;46.05;33.60;;;;;;;9.67;74.66;100806.84;1806909;77;21181;-73
2021/04/01 02:25:55;;;;;;;46.77;34.50;;;;;;;9.66;74.76;100802.03;1811247;78;21426;-72
2021/04/01 02:28:26;;;;;;;46.80;34.98;;;;;;;9.67;74.86;100798.84;1821480;78;21115;-74
2021/04/01 02:31:00;;;;;;;44.85;34.53;;;;;;;9.69;74.89;100803.41;1810814;77;21123;-72
2021/04/01 02:33:30;;;;;;;44.88;33.70;;;;;;;9.71;74.89;100802.66;1807959;77;21178;-72
2021/04/01 02:35:58;;;;;;;48.15;34.23;;;;;;;9.67;74.85;100795.64;1815166;77;22665;-76
2021/04/01 02:38:26;;;;;;;47.15;33.67;;;;;;;9.65;74.86;100795.63;1822061;78;21172;-72
2021/04/01 02:40:56;;;;;;;43.83;33.95;;;;;;;9.61;74.92;100796.11;1790837;78;21528;-72
2021/04/01 02:43:32;;;;;;;44.08;32.95;;;;;;;9.60;75.02;100807.01;1803378;77;21219;-73
2021/04/01 02:45:57;;;;;;;42.60;33.53;;;;;;;9.59;75.12;100807.53;1804203;77;21103;-73
2021/04/01 02:48:26;;;;;;;41.58;31.93;;;;;;;9.61;75.20;100804.11;1811831;78;21281;-73
2021/04/01 02:50:55;;;;;;;46.00;32.42;;;;;;;9.62;75.17;100807.05;1789054;78;21515;-74
2021/04/01 02:53:23;;;;;;;44.65;32.95;;;;;;;9.62;75.15;100811.05;1768493;78;21559;-74
2021/04/01 02:55:53;;;;;;;43.15;32.42;;;;;;;9.63;75.15;100813.19;1789603;78;21666;-74
2021/04/01 02:58:21;;;;;;;50.30;34.33;;;;;;;9.61;75.14;100812.64;1784325;78;21044;-73
2021/04/01 03:00:51;;;;;;;44.40;33.95;;;;;;;9.59;75.13;100803.54;1795825;78;21516;-73
2021/04/01 03:06:05;;;;;;;51.83;34.30;;;;;;;9.65;75.24;100792.42;1760245;79;22818;-73
2021/04/01 03:08:33;;;;;;;48.48;33.30;;;;;;;9.62;75.30;100795.58;1733772;82;21639;-74
2021/04/01 03:11:00;;;;;;;44.93;33.90;;;;;;;9.61;75.33;100788.11;1732439;82;21891;-73
2021/04/01 03:13:28;;;;;;;45.30;33.48;;;;;;;9.61;75.36;100785.98;1736038;82;21655;-73
2021/04/01 03:15:57;;;;;;;51.13;33.40;;;;;;;9.61;75.43;100784.11;1732759;82;21156;-73
2021/04/01 03:18:25;;;;;;;46.10;33.78;;;;;;;9.62;75.49;100786.25;1728580;82;21088;-73
2021/04/01 03:20:54;;;;;;;47.58;33.85;;;;;;;9.65;75.51;100783.09;1745299;82;21073;-73
2021/04/01 03:23:22;;;;;;;48.48;33.10;;;;;;;9.69;75.54;100788.74;1744623;82;21382;-72
2021/04/01 03:25:50;;;;;;;47.58;33.25;;;;;;;9.72;75.51;100787.72;1727521;82;21109;-74
2021/04/01 03:28:19;;;;;;;45.10;34.10;;;;;;;9.76;75.49;100792.04;1733999;81;21137;-73
2021/04/01 03:31:01;;;;;;;49.83;35.63;;;;;;;9.79;75.47;100792.88;1730994;82;21217;-72
2021/04/01 03:33:29;;;;;;;47.93;34.70;;;;;;;9.82;75.42;100783.06;1722386;82;21185;-74
2021/04/01 03:35:59;;;;;;;46.63;34.18;;;;;;;9.86;75.37;100778.30;1730337;82;21395;-73
2021/04/01 03:38:28;;;;;;;48.10;33.15;;;;;;;9.89;75.23;100778.88;1735406;82;21164;-72
2021/04/01 03:40:56;;;;;;;45.55;34.27;;;;;;;9.90;75.14;100777.28;1726878;82;21081;-73
2021/04/01 03:43:27;;;;;;;49.13;33.67;;;;;;;9.92;75.08;100774.39;1722169;81;21184;-73
2021/04/01 03:45:55;;;;;;;33.18;24.10;;;;;;;9.92;75.02;100780.52;1727602;82;21192;-74
2021/04/01 03:48:23;;;;;;;46.15;34.60;;;;;;;9.91;74.96;100781.59;1739231;82;21481;-74
2021/04/01 03:50:52;;;;;;;46.68;34.78;;;;;;;9.89;74.96;100777.55;1732968;82;21069;-74
2021/04/01 03:53:20;;;;;;;49.80;34.78;;;;;;;9.88;74.95;100776.73;1720689;82;21113;-74
2021/04/01 03:55:49;;;;;;;49.10;34.43;;;;;;;9.90;74.95;100773.81;1725111;82;21604;-74
2021/04/01 04:11:44;;;;;;;45.87;33.70;;;;;;;10.11;74.52;100763.69;1784968;79;22717;-74
2021/04/01 04:16:52;;;;;;;50.33;34.43;;;;;;;10.14;74.24;100759.72;1798478;78;23447;-72
2021/04/01 04:19:20;;;;;;;46.75;34.90;;;;;;;10.09;74.15;100755.11;1783439;79;21119;-75
2021/04/01 04:21:49;;;;;;;45.80;34.03;;;;;;;10.09;74.07;100753.25;1758303;80;21204;-73
2021/04/01 04:24:17;;;;;;;43.02;32.53;;;;;;;10.12;73.94;100755.95;1755663;80;21623;-74
2021/04/01 04:26:45;;;;;;;47.13;34.20;;;;;;;10.14;73.85;100747.18;1761122;81;21187;-74
2021/04/01 04:29:13;;;;;;;48.90;33.20;;;;;;;10.17;73.79;100747.19;1763377;79;21189;-73
2021/04/01 04:31:43;;;;;;;46.25;32.93;;;;;;;10.21;73.70;100744.33;1764483;79;21290;-74
2021/04/01 04:34:11;;;;;;;46.45;34.60;;;;;;;10.23;73.61;100738.19;1804434;79;21197;-74
2021/04/01 04:36:40;;;;;;;45.63;34.60;;;;;;;10.27;73.49;100738.82;1780861;79;21119;-73
2021/04/01 04:39:08;;;;;;;48.48;34.10;;;;;;;10.30;73.33;100736.98;1797907;79;21137;-74
2021/04/01 04:41:36;;;;;;;44.88;32.88;;;;;;;10.33;73.21;100735.66;1767225;79;21135;-73
2021/04/01 04:44:06;;;;;;;44.35;32.67;;;;;;;10.36;73.06;100733.02;1775979;79;21129;-74
2021/04/01 04:46:34;;;;;;;46.50;32.28;;;;;;;10.39;72.98;100734.66;1767374;80;21858;-74
2021/04/01 04:49:02;;;;;;;45.48;32.45;;;;;;;10.43;72.84;100728.28;1776536;79;21150;-74
2021/04/01 04:51:32;;;;;;;48.15;33.58;;;;;;;10.47;72.70;100726.75;1770583;80;21124;-73
2021/04/01 04:54:00;;;;;;;46.30;32.70;;;;;;;10.46;72.51;100725.94;1766072;80;21211;-72
2021/04/01 04:56:27;;;;;;;43.60;32.10;;;;;;;10.46;72.37;100728.62;1770629;79;21115;-73
2021/04/01 04:59:01;;;;;;;47.38;33.13;;;;;;;10.46;72.23;100732.62;1770378;80;21341;-73
2021/04/01 05:07:03;;;;;;;46.10;32.90;;;;;;;10.47;72.00;100728.88;1782634;79;21178;-73
2021/04/01 05:09:31;;;;;;;42.53;32.33;;;;;;;10.49;71.96;100714.73;1788744;79;21611;-74
2021/04/01 05:12:00;;;;;;;45.60;33.35;;;;;;;10.54;71.89;100716.13;1769947;79;21390;-73
2021/04/01 05:14:29;;;;;;;45.83;32.75;;;;;;;10.59;71.82;100714.56;1802367;79;21136;-74
2021/04/01 05:16:58;;;;;;;41.48;32.40;;;;;;;10.63;71.77;100707.14;1740666;79;21227;-74
2021/04/01 05:19:27;;;;;;;46.75;33.28;;;;;;;10.68;71.67;100709.04;1773903;79;21176;-73
2021/04/01 05:22:15;;;;;;;45.55;32.48;;;;;;;10.73;71.54;100707.77;1755956;81;21704;-73
2021/04/01 05:24:42;;;;;;;46.25;32.13;;;;;;;10.75;71.46;100703.75;1792289;79;21242;-73
2021/04/01 05:32:28;;;;;;;40.78;30.57;;;;;;;10.93;71.27;100705.78;1772550;79;21191;-73
2021/04/01 05:34:56;;;;;;;42.58;30.88;;;;;;;11.00;71.14;100707.17;1791154;79;21192;-73
2021/04/01 05:37:26;;;;;;;47.43;32.20;;;;;;;11.07;70.94;100706.95;1760860;79;21368;-73
2021/04/01 05:39:58;;;;;;;50.23;32.28;;;;;;;11.13;70.80;100703.26;1766011;79;21410;-73
2021/04/01 05:42:31;;;;;;;45.30;33.38;;;;;;;11.19;70.63;100706.25;1802137;79;21128;-74
2021/04/01 05:45:05;;;;;;;43.63;32.00;;;;;;;11.24;70.44;100700.11;1776844;79;21189;-73
2021/04/01 05:47:34;;;;;;;42.45;31.05;;;;;;;11.26;70.18;100696.12;1767280;79;21931;-73
2021/04/01 05:50:10;;;;;;;47.43;33.13;;;;;;;11.27;69.94;100692.38;1771171;79;21388;-74
2021/04/01 06:06:51;;;;;;;40.83;29.47;;;;;;;11.62;69.23;100672.79;1761907;79;22793;-73
2021/04/01 06:12:08;;;;;;;40.60;27.83;;;;;;;11.91;68.77;100667.31;1802239;79;22729;-74
2021/04/01 06:14:58;;;;;;;38.83;29.00;;;;;;;11.99;68.46;100662.52;1774308;80;21180;-73
2021/04/01 06:17:31;;;;;;;36.17;27.23;;;;;;;12.11;68.18;100657.20;1770988;80;21435;-74
2021/04/01 06:20:05;;;;;;;40.53;30.13;;;;;;;12.30;67.71;100662.83;1772989;80;21476;-73
2021/04/01 06:22:33;;;;;;;37.20;28.53;;;;;;;12.44;67.12;100656.45;1776461;80;21962;-73
2021/04/01 06:25:01;;;;;;;38.83;29.80;;;;;;;12.56;66.87;100656.17;1767809;80;21501;-73
2021/04/01 06:30:21;;;;;;;37.17;28.90;;;;;;;12.88;65.87;100653.22;1821034;77;23034;-73
2021/04/01 06:33:06;;;;;;;39.90;28.40;;;;;;;12.91;65.68;100655.36;1789050;79;21199;-73
2021/04/01 06:35:43;;;;;;;37.80;27.37;;;;;;;13.04;65.57;100652.67;1806637;78;21420;-74
2021/04/01 06:40:45;;;;;;;38.63;27.00;;;;;;;13.34;64.85;100648.59;1796235;79;21359;-74
2021/04/01 06:43:36;;;;;;;34.93;25.60;;;;;;;13.46;64.57;100650.16;1788392;78;21353;-74
2021/04/01 06:46:08;;;;;;;27.15;20.62;;;;;;;13.56;64.13;100650.15;1796792;79;21437;-74
2021/04/01 06:49:01;;;;;;;28.80;21.20;;;;;;;13.66;63.39;100650.11;1794466;78;21642;-73
2021/04/01 06:51:12;;;;;;;27.60;20.40;;;;;;;13.66;62.76;100651.45;1795622;79;21409;-74
2021/04/01 06:56:28;;;;;;;26.87;19.63;;;;;;;13.55;62.69;100647.98;1837437;77;23410;-73
2021/04/01 07:01:46;;;;;;;28.93;20.00;;;;;;;13.40;62.83;100641.34;1790097;78;21495;-74
2021/04/01 07:04:10;;;;;;;28.30;21.13;;;;;;;13.43;62.89;100643.48;1818726;77;21517;-74
2021/04/01 07:06:44;;;;;;;25.17;19.53;;;;;;;13.46;62.87;100644.28;1818112;78;21360;-74
2021/04/01 07:09:50;;;;;;;26.50;20.33;;;;;;;13.51;62.73;100646.93;1816200;78;21404;-74
2021/04/01 07:12:15;;;;;;;23.10;19.43;;;;;;;13.54;62.35;100642.36;1820944;78;21470;-74
2021/04/01 07:14:43;;;;;;;25.20;19.73;;;;;;;13.41;62.80;100641.60;1826241;78;21469;-72
2021/04/01 07:17:28;;;;;;;27.07;21.15;;;;;;;13.41;62.80;100641.60;1828334;78;21904;-75
2021/04/01 07:47:36;;;;;;;26.60;19.73;;;;;;;14.26;61.45;100598.45;1782185;79;21552;-74
2021/04/01 07:50:21;;;;;;;24.37;18.40;;;;;;;14.40;61.04;100590.55;1795920;79;21508;-73
2021/04/01 07:56:00;;;;;;;22.10;18.37;;;;;;;14.74;60.25;100583.02;1835938;77;22870;-73
2021/04/01 08:01:33;;;;;;;19.70;15.97;;;;;;;14.94;59.68;100589.55;1827634;77;21639;-75
2021/04/01 08:06:22;;;;;;;23.47;17.50;;;;;;;15.19;59.23;100572.31;1822033;77;21856;-74
2021/04/01 08:08:56;;;;;;;22.33;17.23;;;;;;;15.31;59.05;100573.81;1812692;78;21750;-73
2021/04/01 08:11:31;;;;;;;17.65;15.08;;;;;;;15.42;58.76;100563.95;1809270;78;21931;-75
2021/04/01 08:16:55;;;;;;;21.13;15.67;;;;;;;15.55;57.96;100561.10;1824788;77;22706;-74
2021/04/01 08:19:27;;;;;;;22.87;18.30;;;;;;;15.52;58.19;100557.64;1791539;80;21411;-73
2021/04/01 08:21:53;;;;;;;;;;;;;;;15.53;58.05;100552.53;1793179;77;21968;-73
2021/04/01 08:24:26;;;;;;;26.07;19.37;;;;;;;15.53;57.95;100557.92;1788640;78;20260;-73
2021/04/01 08:32:46;;;;;;;21.85;16.32;;;;;;;15.74;58.27;100542.85;1803055;79;21818;-74
2021/04/01 08:35:05;;;;;;;23.40;17.87;;;;;;;15.95;58.01;100535.50;1803194;78;21396;-75
2021/04/01 08:37:36;;;;;;;22.60;16.87;;;;;;;16.17;57.07;100530.84;1798188;79;21843;-73
2021/04/01 08:40:08;;;;;;;24.43;17.60;;;;;;;16.35;56.53;100525.70;1756285;79;21897;-74
2021/04/01 08:43:36;;;;;;;22.30;17.47;;;;;;;16.41;55.89;100528.56;1776428;79;21630;-73
2021/04/01 08:46:18;;;;;;;23.07;18.33;;;;;;;16.49;56.06;100532.48;1770470;79;21152;-74
2021/04/01 08:49:28;;;;;;;20.40;17.40;;;;;;;16.62;55.92;100523.06;1801901;79;21376;-73
2021/04/01 08:52:39;;;;;;;25.43;19.13;;;;;;;16.80;55.72;100523.30;1796314;79;21195;-73
2021/04/01 08:55:20;;;;;;;21.60;18.70;;;;;;;16.95;54.67;100509.53;1801143;79;21223;-74
2021/04/01 08:58:05;;;;;;;24.33;18.70;;;;;;;16.93;54.66;100506.88;1809622;79;21155;-73
2021/04/01 09:00:33;;;;;;;26.80;21.40;;;;;;;16.92;54.35;100507.98;1816893;77;21198;-73
2021/04/01 09:03:03;;;;;;;24.83;21.73;;;;;;;16.90;54.04;100503.42;1774469;79;21376;-74
2021/04/01 09:05:34;;;;;;;23.00;19.13;;;;;;;16.79;54.86;100496.09;1803259;78;21219;-73
2021/04/01 09:08:06;;;;;;;23.47;18.73;;;;;;;16.86;54.84;100490.53;1806814;79;21185;-74
2021/04/01 09:10:38;;;;;;;23.57;18.10;;;;;;;17.03;54.85;100487.22;1802337;79;21699;-73
2021/04/01 09:13:15;;;;;;;20.50;16.97;;;;;;;17.26;54.73;100472.44;1796688;79;21210;-74
2021/04/01 09:18:23;;;;;;;20.57;17.43;;;;;;;17.62;53.45;100471.08;1799365;79;21797;-74
2021/04/01 09:20:54;;;;;;;22.40;18.00;;;;;;;17.75;52.88;100474.84;1797865;79;21167;-73
2021/04/01 09:23:35;;;;;;;22.73;18.57;;;;;;;17.78;52.51;100468.85;1788141;77;21752;-73
2021/04/01 09:26:08;;;;;;;20.23;17.20;;;;;;;17.84;52.39;100460.87;1795908;77;21151;-73
2021/04/01 09:28:42;;;;;;;19.40;15.93;;;;;;;17.96;52.50;100458.94;1800850;77;21413;-74
2021/04/01 09:31:14;;;;;;;18.47;14.83;;;;;;;18.11;51.37;100463.18;1803793;79;21190;-73
2021/04/01 09:33:44;;;;;;;22.17;16.93;;;;;;;18.15;51.14;100454.13;1805416;77;22384;-73
2021/04/01 09:36:16;;;;;;;20.77;15.77;;;;;;;18.05;50.87;100452.48;1770146;79;21143;-73
2021/04/01 09:38:52;;;;;;;18.97;16.00;;;;;;;17.90;51.38;100456.94;1802749;79;21143;-73
2021/04/01 09:41:30;;;;;;;19.37;15.40;;;;;;;17.80;51.97;100451.77;1790863;77;21361;-72
2021/04/01 09:44:07;;;;;;;20.00;16.47;;;;;;;17.89;52.22;100454.53;1790494;79;21139;-73
2021/04/01 09:46:36;;;;;;;18.60;15.87;;;;;;;17.97;51.25;100443.79;1795179;79;21210;-73
2021/04/01 09:49:06;;;;;;;20.30;15.70;;;;;;;17.96;51.36;100438.67;1804348;78;21152;-73
2021/04/01 09:51:34;;;;;;;16.50;14.30;;;;;;;17.93;51.27;100436.06;1796085;79;21091;-74
2021/04/01 09:54:03;;;;;;;17.13;14.13;;;;;;;17.94;50.63;100434.95;1803048;77;21284;-74
2021/04/01 09:56:32;;;;;;;16.77;13.77;;;;;;;17.90;50.86;100431.27;1804387;77;21184;-74
2021/04/01 09:59:00;;;;;;;18.70;13.57;;;;;;;17.95;50.77;100424.38;1800642;77;21121;-74
2021/04/01 10:01:36;;;;;;;17.20;13.87;;;;;;;18.02;50.39;100423.94;1792859;79;21167;-73
2021/04/01 10:04:18;;;;;;;19.27;13.90;;;;;;;18.12;50.81;100426.92;1803977;79;21203;-73
2021/04/01 10:06:51;;;;;;;18.75;13.72;;;;;;;18.33;50.04;100416.35;1793634;79;21195;-74
2021/04/01 10:09:24;;;;;;;16.80;12.90;;;;;;;18.45;49.94;100407.89;1800497;79;21076;-74
2021/04/01 10:12:05;;;;;;;19.10;14.57;;;;;;;18.56;50.16;100403.55;1798995;78;21085;-73
2021/04/01 10:14:35;;;;;;;16.80;13.90;;;;;;;18.59;48.94;100406.45;1795696;79;21131;-73
2021/04/01 10:19:52;;;;;;;16.13;13.20;;;;;;;18.55;48.99;100383.82;1763643;79;22700;-73
2021/04/01 10:22:28;;;;;;;16.60;12.87;;;;;;;18.55;49.24;100397.34;1699277;82;21101;-73
2021/04/01 10:25:20;;;;;;;19.03;14.83;;;;;;;18.75;48.48;100382.46;1727155;82;21469;-74
2021/04/01 10:28:01;;;;;;;14.23;12.40;;;;;;;18.91;47.81;100383.59;1739385;82;21137;-73
2021/04/01 10:30:32;;;;;;;16.20;13.50;;;;;;;19.14;47.25;100382.89;1741578;82;21192;-73
2021/04/01 10:33:10;;;;;;;15.60;12.87;;;;;;;19.26;46.75;100382.27;1719425;82;21106;-73
2021/04/01 10:35:38;;;;;;;15.53;13.83;;;;;;;19.20;45.77;100382.19;1727801;82;21140;-74
2021/04/01 10:38:07;;;;;;;15.57;13.20;;;;;;;19.07;46.38;100371.75;1726754;82;21194;-73
2021/04/01 10:40:36;;;;;;;17.10;14.27;;;;;;;19.01;46.87;100366.81;1720348;82;21141;-73
2021/04/01 10:43:07;;;;;;;16.00;12.90;;;;;;;19.06;45.91;100359.34;1719404;82;21165;-74
2021/04/01 10:45:41;;;;;;;15.70;13.47;;;;;;;19.12;45.61;100343.18;1727504;80;21212;-73
2021/04/01 10:48:30;;;;;;;17.37;14.17;;;;;;;19.19;44.97;100354.32;1733312;82;21173;-74
2021/04/01 10:53:47;;;;;;;18.17;13.27;;;;;;;19.25;45.01;100340.06;1815972;79;22497;-73
2021/04/01 10:56:15;;;;;;;15.57;12.00;;;;;;;19.28;45.12;100335.37;1773588;78;21119;-73
2021/04/01 10:58:55;;;;;;;12.67;11.30;;;;;;;19.39;45.05;100332.55;1814990;78;21159;-73
2021/04/01 11:01:36;;;;;;;15.80;13.37;;;;;;;19.53;44.25;100340.48;1802465;78;21221;-73
2021/04/01 11:04:05;;;;;;;15.65;12.93;;;;;;;19.53;43.89;100324.23;1812535;77;21174;-74
2021/04/01 11:06:35;;;;;;;17.80;13.97;;;;;;;19.52;43.11;100321.86;1780087;78;21204;-73
2021/04/01 11:09:04;;;;;;;14.30;11.77;;;;;;;19.54;43.41;100316.89;1803872;78;21133;-75
2021/04/01 11:14:24;;;;;;;17.50;13.43;;;;;;;19.63;43.20;100306.30;1784436;78;21158;-75
2021/04/01 11:16:54;;;;;;;15.10;12.13;;;;;;;19.65;42.47;100308.70;1778110;78;21205;-74
2021/04/01 11:19:22;;;;;;;16.30;11.90;;;;;;;19.64;43.00;100301.67;1787390;79;21173;-73
2021/04/01 11:21:50;;;;;;;16.30;12.97;;;;;;;19.72;42.82;100294.66;1743262;81;21191;-74
2021/04/01 11:24:37;;;;;;;16.13;13.27;;;;;;;19.73;42.67;100298.37;1791215;77;21380;-74
2021/04/01 11:27:17;;;;;;;16.23;13.70;;;;;;;19.61;42.62;100294.98;1812775;77;21122;-73
2021/04/01 11:29:59;;;;;;;17.23;13.97;;;;;;;19.53;42.23;100280.09;1815837;78;21097;-73
2021/04/01 11:32:30;;;;;;;15.67;12.50;;;;;;;19.53;42.23;100280.09;1796656;78;21197;-74
2021/04/01 11:35:01;;;;;;;13.43;11.10;;;;;;;19.59;40.67;100277.45;1784107;79;21567;-74
2021/04/01 11:37:34;;;;;;;12.77;10.83;;;;;;;19.60;40.73;100273.61;1806433;77;21419;-73
2021/04/01 11:40:07;;;;;;;12.40;10.43;;;;;;;19.73;40.87;100265.86;1820331;78;21648;-72
2021/04/01 11:42:35;;;;;;;13.17;10.80;;;;;;;19.82;40.60;100268.55;1774691;78;21188;-74
2021/04/01 11:45:06;;;;;;;15.97;13.00;;;;;;;19.84;41.25;100264.93;1800471;77;21071;-73
2021/04/01 11:47:39;;;;;;;14.40;12.90;;;;;;;19.90;41.13;100266.34;1813025;77;21126;-73
2021/04/01 11:50:08;;;;;;;15.90;13.70;;;;;;;19.89;40.50;100266.11;1820511;78;22310;-73
2021/04/01 11:52:36;;;;;;;16.17;13.47;;;;;;;19.84;40.89;100257.63;1776146;78;21228;-72
2021/04/01 11:55:10;;;;;;;15.47;12.83;;;;;;;19.93;40.76;100246.72;1763077;80;21191;-72
2021/04/01 11:57:43;;;;;;;16.00;12.60;;;;;;;20.03;41.06;100248.26;1769215;80;21116;-74
2021/04/01 12:00:20;;;;;;;13.43;11.50;;;;;;;20.10;40.82;100243.93;1778592;80;21219;-74
2021/04/01 12:02:53;;;;;;;16.00;12.47;;;;;;;20.23;40.91;100233.93;1771591;80;21423;-73
2021/04/01 12:05:19;;;;;;;15.83;13.47;;;;;;;20.40;39.94;100234.39;1788348;78;21220;-73
2021/04/01 12:07:47;;;;;;;16.10;13.90;;;;;;;20.45;39.35;100227.97;1791006;79;21560;-74
2021/04/01 12:10:15;;;;;;;16.70;13.37;;;;;;;20.39;38.96;100226.00;1789884;79;21146;-73
2021/04/01 12:12:43;;;;;;;16.10;13.50;;;;;;;20.19;39.37;100224.88;1785850;79;21215;-73
2021/04/01 12:15:14;;;;;;;15.27;13.63;;;;;;;20.00;40.04;100214.45;1767957;80;21200;-74
2021/04/01 12:17:42;;;;;;;15.63;13.97;;;;;;;19.95;40.41;100220.66;1767507;79;21129;-72
2021/04/01 12:20:13;;;;;;;18.53;13.97;;;;;;;19.81;40.77;100218.16;1767278;79;21196;-74
2021/04/01 12:22:43;;;;;;;17.50;14.28;;;;;;;19.62;41.43;100214.49;1767408;80;21168;-73
2021/04/01 12:25:20;;;;;;;16.20;14.07;;;;;;;19.42;42.06;100211.95;1764620;80;21168;-74
2021/04/01 12:27:55;;;;;;;13.87;12.33;;;;;;;19.36;42.57;100201.84;1765764;79;22122;-73
2021/04/01 12:30:28;;;;;;;13.60;12.03;;;;;;;19.45;42.55;100199.11;1765791;80;21233;-74
2021/04/01 12:33:13;;;;;;;13.57;11.07;;;;;;;19.64;42.49;100193.30;1770209;80;21164;-73
2021/04/01 12:35:56;;;;;;;13.87;11.60;;;;;;;19.82;41.64;100194.02;1761739;80;21099;-74
2021/04/01 12:38:37;;;;;;;14.03;12.13;;;;;;;19.85;41.02;100179.81;1760428;80;21176;-74
2021/04/01 12:41:24;;;;;;;14.97;11.17;;;;;;;19.66;41.18;100178.31;1785971;79;21363;-72
2021/04/01 12:43:53;;;;;;;12.97;10.40;;;;;;;19.57;40.91;100179.45;1761881;80;21148;-73
2021/04/01 12:46:22;;;;;;;11.53;10.33;;;;;;;19.46;40.57;100177.67;1771103;80;21133;-73
2021/04/01 12:48:55;;;;;;;12.80;10.40;;;;;;;19.41;40.46;100168.36;1789385;79;21497;-72
2021/04/01 12:51:25;;;;;;;12.20;10.57;;;;;;;19.31;40.44;100168.16;1766942;79;21310;-72
2021/04/01 12:54:09;;;;;;;13.63;10.23;;;;;;;19.22;40.69;100166.06;1771639;79;21215;-72
2021/04/01 12:56:46;;;;;;;12.77;10.30;;;;;;;19.22;40.92;100167.42;1764365;80;21159;-74
2021/04/01 12:59:18;;;;;;;13.73;9.90;;;;;;;19.30;41.04;100161.73;1768609;79;21124;-74
2021/04/01 13:01:52;;;;;;;12.20;10.80;;;;;;;19.44;40.82;100146.83;1757342;80;21612;-74
2021/04/01 13:04:21;;;;;;;16.43;10.17;;;;;;;19.62;40.58;100135.36;1756547;80;21073;-73
2021/04/01 13:11:45;;;;;;;13.87;9.40;;;;;;;20.05;40.32;100131.59;1795241;79;21128;-73
2021/04/01 13:14:14;;;;;;;12.03;9.87;;;;;;;20.29;39.96;100129.55;1791232;79;21141;-73
2021/04/01 13:16:44;;;;;;;11.03;9.40;;;;;;;20.47;38.85;100114.50;1785825;79;21264;-74
2021/04/01 13:19:13;;;;;;;10.23;9.10;;;;;;;20.51;38.94;100110.02;1763618;80;21351;-73
2021/04/01 13:24:32;;;;;;;10.65;8.48;;;;;;;20.59;38.48;100097.70;1787885;79;21113;-75
2021/04/01 13:26:57;;;;;;;13.30;10.37;;;;;;;20.64;38.31;100105.42;1785052;79;21109;-74
2021/04/01 13:29:29;;;;;;;12.07;9.63;;;;;;;20.61;38.02;100100.09;1788270;79;21632;-74
2021/04/01 13:32:09;;;;;;;10.28;8.88;;;;;;;20.61;38.47;100096.02;1761085;80;21581;-73
2021/04/01 13:34:41;;;;;;;11.37;9.23;;;;;;;20.57;37.84;100106.75;1759827;80;21208;-73